createdAt,value
2018-06-11T00:01:50.939Z,18.37
2018-06-11T00:04:19.934Z,18.32
2018-06-11T00:06:48.930Z,18.32
2018-06-11T00:09:17.911Z,18.31
2018-06-11T00:11:46.968Z,18.30
2018-06-11T00:14:15.973Z,18.30
2018-06-11T00:16:44.985Z,18.28
2018-06-11T00:19:14.025Z,18.23
2018-06-11T00:21:43.029Z,18.20
2018-06-11T00:24:12.048Z,18.18
2018-06-11T00:26:41.041Z,18.17
2018-06-11T00:29:10.107Z,18.18
2018-06-11T00:31:39.135Z,18.15
2018-06-11T00:34:08.248Z,18.10
2018-06-11T00:36:37.378Z,18.05
2018-06-11T00:39:08.346Z,17.99
2018-06-11T00:41:37.419Z,17.98
2018-06-11T00:44:06.505Z,18.04
2018-06-11T00:46:35.609Z,18.07
2018-06-11T00:49:04.808Z,18.06
2018-06-11T00:51:34.220Z,18.11
2018-06-11T00:56:56.099Z,18.11
2018-06-11T00:59:25.314Z,18.12
2018-06-11T01:01:54.372Z,18.19
2018-06-11T01:04:23.373Z,18.20
2018-06-11T01:06:52.455Z,18.20
2018-06-11T01:09:23.410Z,18.25
2018-06-11T01:11:52.582Z,18.25
2018-06-11T01:14:21.629Z,18.28
2018-06-11T01:16:50.627Z,18.24
2018-06-11T01:19:19.666Z,18.19
2018-06-11T01:21:48.667Z,18.14
2018-06-11T01:24:17.670Z,18.16
2018-06-11T01:26:46.771Z,18.12
2018-06-11T01:29:15.778Z,18.09
2018-06-11T01:31:44.791Z,18.04
2018-06-11T01:34:13.812Z,18.01
2018-06-11T01:36:42.830Z,18.01
2018-06-11T01:39:11.818Z,18.00
2018-06-11T01:41:40.836Z,18.03
2018-06-11T01:44:09.864Z,18.06
2018-06-11T01:46:38.868Z,18.11
2018-06-11T01:49:07.917Z,18.12
2018-06-11T01:51:37.021Z,18.18
2018-06-11T01:54:06.026Z,18.26
2018-06-11T01:56:35.035Z,18.20
2018-06-11T01:59:04.026Z,18.18
2018-06-11T02:01:33.077Z,18.13
2018-06-11T02:04:02.388Z,18.05
2018-06-11T02:06:31.417Z,18.00
2018-06-11T02:09:00.447Z,17.94
2018-06-11T02:11:29.459Z,17.91
2018-06-11T02:13:58.468Z,17.93
2018-06-11T02:16:27.491Z,17.97
2018-06-11T02:18:56.652Z,18.00
2018-06-11T02:21:26.472Z,18.02
2018-06-11T02:23:55.546Z,18.07
2018-06-11T02:26:24.667Z,18.09
2018-06-11T02:28:53.806Z,18.12
2018-06-11T02:31:22.937Z,18.16
2018-06-11T02:33:52.022Z,18.19
2018-06-11T02:36:21.048Z,18.15
2018-06-11T02:38:50.104Z,18.06
2018-06-11T02:41:19.125Z,18.07
2018-06-11T02:43:48.185Z,18.06
2018-06-11T02:46:17.226Z,18.05
2018-06-11T02:48:46.376Z,17.99
2018-06-11T02:51:15.493Z,17.96
2018-06-11T02:53:44.493Z,17.93
2018-06-11T02:56:13.530Z,17.93
2018-06-11T02:58:42.538Z,17.90
2018-06-11T03:01:11.651Z,17.89
2018-06-11T03:03:40.715Z,17.91
2018-06-11T03:06:09.817Z,17.93
2018-06-11T03:08:38.836Z,18.03
2018-06-11T03:11:07.853Z,18.04
2018-06-11T03:13:36.920Z,18.04
2018-06-11T03:16:05.903Z,18.05
2018-06-11T03:18:34.959Z,18.10
2018-06-11T03:21:03.971Z,18.15
2018-06-11T03:23:33.002Z,18.20
2018-06-11T03:26:02.109Z,18.22
2018-06-11T03:28:31.089Z,18.23
2018-06-11T03:31:00.520Z,18.22
2018-06-11T03:33:29.524Z,18.28
2018-06-11T03:35:58.550Z,18.34
2018-06-11T03:38:27.622Z,18.34
2018-06-11T03:40:56.848Z,18.39
2018-06-11T03:43:25.941Z,18.41
2018-06-11T03:45:54.988Z,18.48
2018-06-11T03:48:23.983Z,18.46
2018-06-11T03:50:53.498Z,18.54
2018-06-11T03:53:22.502Z,18.54
2018-06-11T03:55:51.538Z,18.61
2018-06-11T03:58:20.615Z,18.67
2018-06-11T04:00:49.827Z,18.70
2018-06-11T04:03:18.949Z,18.70
2018-06-11T04:05:48.373Z,18.70
2018-06-11T04:08:17.396Z,18.73
2018-06-11T04:10:46.438Z,18.73
2018-06-11T04:13:15.493Z,18.78
2018-06-11T04:15:44.576Z,18.79
2018-06-11T04:18:13.584Z,18.88
2018-06-11T04:20:42.701Z,18.86
2018-06-11T04:23:11.730Z,18.86
2018-06-11T04:25:40.874Z,18.87
2018-06-11T04:28:09.983Z,18.89
2018-06-11T04:30:39.162Z,18.93
2018-06-11T04:33:08.173Z,18.97
2018-06-11T04:35:37.213Z,19.01
2018-06-11T04:38:06.229Z,19.23
2018-06-11T04:40:35.286Z,19.38
2018-06-11T04:43:04.268Z,19.35
2018-06-11T04:45:33.343Z,19.50
2018-06-11T04:48:02.360Z,19.42
2018-06-11T04:50:31.480Z,19.43
2018-06-11T04:53:00.461Z,19.55
2018-06-11T04:55:29.448Z,19.60
2018-06-11T04:57:58.692Z,19.63
2018-06-11T05:00:27.721Z,19.72
2018-06-11T05:02:56.803Z,19.63
2018-06-11T05:05:25.857Z,19.63
2018-06-11T05:07:54.983Z,19.64
2018-06-11T05:10:24.120Z,19.62
2018-06-11T05:12:53.231Z,19.57
2018-06-11T05:15:22.270Z,19.48
2018-06-11T05:17:51.248Z,19.45
2018-06-11T05:20:20.283Z,19.56
2018-06-11T05:22:49.360Z,19.66
2018-06-11T05:25:18.355Z,19.77
2018-06-11T05:27:47.356Z,19.82
2018-06-11T05:30:16.333Z,19.78
2018-06-11T05:32:45.432Z,19.84
2018-06-11T05:35:14.479Z,19.81
2018-06-11T05:37:43.548Z,19.82
2018-06-11T05:40:12.537Z,19.75
2018-06-11T05:42:41.616Z,19.82
2018-06-11T05:45:10.653Z,19.87
2018-06-11T05:47:39.644Z,19.94
2018-06-11T05:50:08.714Z,19.98
2018-06-11T05:52:37.800Z,19.98
2018-06-11T05:55:06.801Z,20.02
2018-06-11T05:57:35.861Z,19.99
2018-06-11T06:00:05.089Z,19.96
2018-06-11T06:02:34.108Z,20.05
2018-06-11T06:05:03.079Z,20.26
2018-06-11T06:07:32.078Z,20.27
2018-06-11T06:10:01.445Z,20.29
2018-06-11T06:12:30.415Z,20.42
2018-06-11T06:14:59.425Z,20.49
2018-06-11T06:17:28.454Z,20.50
2018-06-11T06:19:57.507Z,20.42
2018-06-11T06:22:26.630Z,20.42
2018-06-11T06:24:55.752Z,20.53
2018-06-11T06:27:24.764Z,20.54
2018-06-11T06:29:53.851Z,20.60
2018-06-11T06:32:22.861Z,20.70
2018-06-11T06:34:51.949Z,20.59
2018-06-11T06:37:20.971Z,20.57
2018-06-11T06:39:50.001Z,20.60
2018-06-11T06:42:19.000Z,20.90
2018-06-11T06:44:48.014Z,21.02
2018-06-11T06:47:17.027Z,21.28
2018-06-11T06:49:46.034Z,21.68
2018-06-11T06:52:15.019Z,21.95
2018-06-11T06:54:44.046Z,22.33
2018-06-11T06:57:13.049Z,22.25
2018-06-11T06:59:42.036Z,22.28
2018-06-11T07:02:11.243Z,22.71
2018-06-11T07:04:40.367Z,23.61
2018-06-11T07:07:09.461Z,24.07
2018-06-11T07:09:38.499Z,24.52
2018-06-11T07:12:07.512Z,24.37
2018-06-11T07:14:36.509Z,24.44
2018-06-11T07:17:05.524Z,24.29
2018-06-11T07:19:34.554Z,24.39
2018-06-11T07:22:03.623Z,25.09
2018-06-11T07:24:32.685Z,26.88
2018-06-11T07:27:01.737Z,28.26
2018-06-11T07:29:30.679Z,26.99
2018-06-11T07:31:59.886Z,26.14
2018-06-11T07:34:28.901Z,26.22
2018-06-11T07:36:57.937Z,25.48
2018-06-11T07:39:26.929Z,24.80
2018-06-11T07:41:56.005Z,24.74
2018-06-11T07:44:25.065Z,24.63
2018-06-11T07:46:54.080Z,24.81
2018-06-11T07:49:23.099Z,24.63
2018-06-11T07:51:52.096Z,25.11
2018-06-11T07:54:21.099Z,25.37
2018-06-11T07:56:50.157Z,25.57
2018-06-11T07:59:19.198Z,25.14
2018-06-11T08:01:48.214Z,24.46
2018-06-11T08:04:17.205Z,24.12
2018-06-11T08:06:46.219Z,23.99
2018-06-11T08:09:15.227Z,23.87
2018-06-11T08:11:44.224Z,23.67
2018-06-11T08:14:13.266Z,23.63
2018-06-11T08:16:42.251Z,23.02
2018-06-11T08:19:11.280Z,22.98
2018-06-11T08:21:40.270Z,23.03
2018-06-11T08:24:09.811Z,22.77
2018-06-11T08:26:38.791Z,22.87
2018-06-11T08:29:08.029Z,22.89
2018-06-11T08:31:37.039Z,23.66
2018-06-11T08:34:06.118Z,24.69
2018-06-11T08:36:35.128Z,25.17
2018-06-11T08:39:06.187Z,25.51
2018-06-11T08:41:35.214Z,25.37
2018-06-11T08:44:04.437Z,25.00
2018-06-11T08:46:33.430Z,24.66
2018-06-11T08:49:02.410Z,24.37
2018-06-11T08:51:31.960Z,24.09
2018-06-11T08:54:01.050Z,23.97
2018-06-11T08:56:30.052Z,23.76
2018-06-11T08:58:59.051Z,23.77
2018-06-11T09:01:28.068Z,23.34
2018-06-11T09:03:57.038Z,23.15
2018-06-11T09:06:26.035Z,23.28
2018-06-11T09:08:55.039Z,23.04
2018-06-11T09:11:24.101Z,23.24
2018-06-11T09:13:53.202Z,23.07
2018-06-11T09:16:22.330Z,22.82
2018-06-11T09:18:51.406Z,23.02
2018-06-11T09:21:20.490Z,22.94
2018-06-11T09:23:49.515Z,22.87
2018-06-11T09:26:18.525Z,22.98
2018-06-11T09:28:47.521Z,22.95
2018-06-11T09:31:16.542Z,23.17
2018-06-11T09:33:45.547Z,23.17
2018-06-11T09:36:14.542Z,23.36
2018-06-11T09:38:43.574Z,23.18
2018-06-11T09:41:12.596Z,23.21
2018-06-11T09:43:41.681Z,23.34
2018-06-11T09:46:10.643Z,23.85
2018-06-11T09:48:39.654Z,24.13
2018-06-11T09:51:08.963Z,24.45
2018-06-11T09:53:37.998Z,24.72
2018-06-11T09:56:07.137Z,24.99
2018-06-11T09:58:36.131Z,24.38
2018-06-11T10:01:05.223Z,24.37
2018-06-11T10:03:34.265Z,24.49
2018-06-11T10:06:03.235Z,24.26
2018-06-11T10:08:32.232Z,24.60
2018-06-11T10:11:01.266Z,24.86
2018-06-11T10:13:30.273Z,24.50
2018-06-11T10:15:59.334Z,24.57
2018-06-11T10:18:28.306Z,25.00
2018-06-11T10:20:57.349Z,25.54
2018-06-11T10:23:26.375Z,25.59
2018-06-11T10:25:55.548Z,25.74
2018-06-11T10:28:24.600Z,25.51
2018-06-11T10:30:53.690Z,25.60
2018-06-11T10:33:23.710Z,25.27
2018-06-11T10:35:52.760Z,24.95
2018-06-11T10:38:21.741Z,24.99
2018-06-11T10:40:51.967Z,25.02
2018-06-11T10:43:20.997Z,24.97
2018-06-11T10:45:50.011Z,24.88
2018-06-11T10:48:19.055Z,24.99
2018-06-11T10:50:48.129Z,25.05
2018-06-11T10:53:17.139Z,25.01
2018-06-11T10:55:46.150Z,24.97
2018-06-11T10:58:15.126Z,24.85
2018-06-11T11:00:44.171Z,25.05
2018-06-11T11:03:13.225Z,25.04
2018-06-11T11:05:42.258Z,25.00
2018-06-11T11:08:11.288Z,25.05
2018-06-11T11:10:40.459Z,25.39
2018-06-11T11:13:09.544Z,25.51
2018-06-11T11:15:38.551Z,25.34
2018-06-11T11:18:07.576Z,24.97
2018-06-11T11:20:36.580Z,25.19
2018-06-11T11:23:05.627Z,25.19
2018-06-11T11:25:37.602Z,25.91
2018-06-11T11:28:06.644Z,26.29
2018-06-11T11:30:35.632Z,26.96
2018-06-11T11:33:04.658Z,28.21
2018-06-11T11:35:33.659Z,28.66
2018-06-11T11:38:02.650Z,28.60
2018-06-11T11:40:31.683Z,27.86
2018-06-11T11:43:00.687Z,27.66
2018-06-11T11:45:32.209Z,27.62
2018-06-11T11:48:01.196Z,28.27
2018-06-11T11:50:30.245Z,27.77
2018-06-11T11:52:59.327Z,27.51
2018-06-11T11:55:28.608Z,27.22
2018-06-11T11:57:58.876Z,27.01
2018-06-11T12:00:28.334Z,26.79
2018-06-11T12:02:57.369Z,26.59
2018-06-11T12:05:26.944Z,26.99
2018-06-11T12:07:56.683Z,28.56
2018-06-11T12:10:25.936Z,29.26
2018-06-11T12:12:54.921Z,29.39
2018-06-11T12:15:23.994Z,29.68
2018-06-11T12:17:53.119Z,29.26
2018-06-11T12:20:22.357Z,28.78
2018-06-11T12:22:51.406Z,28.65
2018-06-11T12:25:20.412Z,28.50
2018-06-11T12:27:49.462Z,27.95
2018-06-11T12:30:18.510Z,28.11
2018-06-11T12:32:47.488Z,27.71
2018-06-11T12:35:16.540Z,27.36
2018-06-11T12:37:45.525Z,27.07
2018-06-11T12:40:14.543Z,27.01
2018-06-11T12:42:43.538Z,27.23
2018-06-11T12:45:12.624Z,27.53
2018-06-11T12:47:41.684Z,27.40
2018-06-11T12:50:10.743Z,27.52
2018-06-11T12:52:39.752Z,27.61
2018-06-11T12:55:08.781Z,27.47
2018-06-11T12:57:37.843Z,27.36
2018-06-11T13:00:06.826Z,27.51
2018-06-11T13:02:35.825Z,27.46
2018-06-11T13:05:04.845Z,27.41
2018-06-11T13:07:33.894Z,27.00
2018-06-11T13:10:02.946Z,27.36
2018-06-11T13:12:32.274Z,27.33
2018-06-11T13:15:01.266Z,27.86
2018-06-11T13:17:30.270Z,28.65
2018-06-11T13:19:59.669Z,28.74
2018-06-11T13:22:28.676Z,29.01
2018-06-11T13:24:57.661Z,28.92
2018-06-11T13:27:26.768Z,29.19
2018-06-11T13:29:55.733Z,29.02
2018-06-11T13:32:24.845Z,29.18
2018-06-11T13:34:53.830Z,30.01
2018-06-11T13:37:22.834Z,31.08
2018-06-11T13:39:51.843Z,31.46
2018-06-11T13:42:20.834Z,31.66
2018-06-11T13:44:49.874Z,31.00
2018-06-11T13:47:18.912Z,31.39
2018-06-11T13:49:47.900Z,31.67
2018-06-11T13:52:16.888Z,31.77
2018-06-11T13:54:45.898Z,31.61
2018-06-11T13:57:18.592Z,31.86
2018-06-11T13:59:47.591Z,31.88
2018-06-11T14:02:16.555Z,31.32
2018-06-11T14:04:45.568Z,30.80
2018-06-11T14:07:14.636Z,30.55
2018-06-11T14:09:43.640Z,29.44
2018-06-11T14:12:12.636Z,29.15
2018-06-11T14:14:41.699Z,29.19
2018-06-11T14:17:10.663Z,29.49
2018-06-11T14:19:39.666Z,29.15
2018-06-11T14:22:08.650Z,28.76
2018-06-11T14:24:37.656Z,28.56
2018-06-11T14:27:06.675Z,28.30
2018-06-11T14:29:35.676Z,29.04
2018-06-11T14:32:04.708Z,28.78
2018-06-11T14:34:33.696Z,28.68
2018-06-11T14:37:02.769Z,28.86
2018-06-11T14:39:31.851Z,28.68
2018-06-11T14:42:00.892Z,28.56
2018-06-11T14:44:29.904Z,28.87
2018-06-11T14:46:58.901Z,29.37
2018-06-11T14:49:27.928Z,29.51
2018-06-11T14:51:59.890Z,29.70
2018-06-11T14:54:28.903Z,29.48
2018-06-11T14:56:57.994Z,29.04
2018-06-11T14:59:26.986Z,29.25
2018-06-11T15:01:55.981Z,29.33
2018-06-11T15:04:25.070Z,29.66
2018-06-11T15:06:54.163Z,29.85
2018-06-11T15:09:23.257Z,30.22
2018-06-11T15:11:52.175Z,29.74
2018-06-11T15:14:21.162Z,29.15
2018-06-11T15:16:50.326Z,29.02
2018-06-11T15:19:19.286Z,29.46
2018-06-11T15:21:48.409Z,29.59
2018-06-11T15:24:17.408Z,29.61
2018-06-11T15:26:48.275Z,29.76
2018-06-11T15:29:17.287Z,29.85
2018-06-11T15:31:46.289Z,29.38
2018-06-11T15:34:15.326Z,28.60
2018-06-11T15:36:44.378Z,28.53
2018-06-11T15:39:13.375Z,28.14
2018-06-11T15:41:42.413Z,27.83
2018-06-11T15:44:11.542Z,28.37
2018-06-11T15:46:40.554Z,28.48
2018-06-11T15:49:09.606Z,28.03
2018-06-11T15:51:38.814Z,28.20
2018-06-11T15:54:07.974Z,28.06
2018-06-11T15:56:36.963Z,27.82
2018-06-11T15:59:05.909Z,27.64
2018-06-11T16:01:35.080Z,27.20
2018-06-11T16:04:04.063Z,27.04
2018-06-11T16:06:33.072Z,26.96
2018-06-11T16:09:06.732Z,26.78
2018-06-11T16:11:35.740Z,26.72
2018-06-11T16:14:04.894Z,26.80
2018-06-11T16:16:33.903Z,26.63
2018-06-11T16:19:02.979Z,26.50
2018-06-11T16:21:32.087Z,26.70
2018-06-11T16:24:01.086Z,26.60
2018-06-11T16:26:30.134Z,26.52
2018-06-11T16:28:59.118Z,26.65
2018-06-11T16:31:28.207Z,26.46
2018-06-11T16:33:57.172Z,26.49
2018-06-11T16:36:26.207Z,26.49
2018-06-11T16:38:55.215Z,26.53
2018-06-11T16:41:24.298Z,26.53
2018-06-11T16:43:53.259Z,26.33
2018-06-11T16:46:22.225Z,26.31
2018-06-11T16:48:51.236Z,26.05
2018-06-11T16:51:20.208Z,26.02
2018-06-11T16:53:49.209Z,26.10
2018-06-11T16:56:18.379Z,26.14
2018-06-11T16:58:47.404Z,25.68
2018-06-11T17:01:16.474Z,25.49
2018-06-11T17:03:45.495Z,25.36
2018-06-11T17:06:14.548Z,25.34
2018-06-11T17:08:43.648Z,25.25
2018-06-11T17:11:12.622Z,25.08
2018-06-11T17:13:41.663Z,25.08
2018-06-11T17:16:10.618Z,24.99
2018-06-11T17:18:39.656Z,24.85
2018-06-11T17:21:08.612Z,24.80
2018-06-11T17:23:37.631Z,24.80
2018-06-11T17:26:06.769Z,24.66
2018-06-11T17:28:35.758Z,24.65
2018-06-11T17:31:05.230Z,24.61
2018-06-11T17:33:34.261Z,24.59
2018-06-11T17:36:03.285Z,24.54
2018-06-11T17:38:32.291Z,24.46
2018-06-11T17:41:01.349Z,24.51
2018-06-11T17:43:30.400Z,24.44
2018-06-11T17:45:59.756Z,24.35
2018-06-11T17:48:28.745Z,24.30
2018-06-11T17:50:57.743Z,24.19
2018-06-11T17:53:26.743Z,24.18
2018-06-11T17:55:55.902Z,24.08
2018-06-11T17:58:24.942Z,23.95
2018-06-11T18:00:53.971Z,23.99
2018-06-11T18:03:23.168Z,23.92
2018-06-11T18:05:52.173Z,23.83
2018-06-11T18:08:21.216Z,23.73
2018-06-11T18:10:50.564Z,23.63
2018-06-11T18:13:19.531Z,23.54
2018-06-11T18:15:48.525Z,23.56
2018-06-11T18:18:17.557Z,23.45
2018-06-11T18:20:46.750Z,23.47
2018-06-11T18:23:15.731Z,23.33
2018-06-11T18:25:44.762Z,23.30
2018-06-11T18:28:13.742Z,23.11
2018-06-11T18:30:42.725Z,22.99
2018-06-11T18:33:11.696Z,23.01
2018-06-11T18:35:40.712Z,22.95
2018-06-11T18:38:09.690Z,22.94
2018-06-11T18:40:38.667Z,22.75
2018-06-11T18:43:07.795Z,22.71
2018-06-11T18:45:37.275Z,22.64
2018-06-11T18:48:06.362Z,22.58
2018-06-11T18:50:35.358Z,22.58
2018-06-11T18:53:04.366Z,22.62
2018-06-11T18:55:33.372Z,22.61
2018-06-11T18:58:02.416Z,22.54
2018-06-11T19:00:31.640Z,22.50
2018-06-11T19:03:00.583Z,22.46
2018-06-11T19:05:29.663Z,22.41
2018-06-11T19:07:58.762Z,22.33
2018-06-11T19:10:27.734Z,22.27
2018-06-11T19:12:56.713Z,22.21
2018-06-11T19:15:25.825Z,22.12
2018-06-11T19:17:54.804Z,22.10
2018-06-11T19:20:23.856Z,22.04
2018-06-11T19:22:52.827Z,21.94
2018-06-11T19:25:21.820Z,21.91
2018-06-11T19:27:50.807Z,21.79
2018-06-11T19:30:19.904Z,21.71
2018-06-11T19:32:48.881Z,21.64
2018-06-11T19:35:18.233Z,21.59
2018-06-11T19:37:47.158Z,21.49
2018-06-11T19:40:16.167Z,21.40
2018-06-11T19:42:45.276Z,21.36
2018-06-11T19:45:14.526Z,21.29
2018-06-11T19:47:43.640Z,21.20
2018-06-11T19:50:12.703Z,21.13
2018-06-11T19:52:41.647Z,21.06
2018-06-11T19:55:10.633Z,21.00
2018-06-11T19:57:39.692Z,20.94
2018-06-11T20:00:08.796Z,20.90
2018-06-11T20:02:37.829Z,20.87
2018-06-11T20:05:06.964Z,20.85
2018-06-11T20:07:36.051Z,20.77
2018-06-11T20:10:05.158Z,20.71
2018-06-11T20:12:34.226Z,20.72
2018-06-11T20:15:03.248Z,20.69
2018-06-11T20:17:32.963Z,20.69
2018-06-11T20:20:01.986Z,20.67
2018-06-11T20:22:31.131Z,20.59
2018-06-11T20:25:00.191Z,20.54
2018-06-11T20:27:29.142Z,20.52
2018-06-11T20:29:58.116Z,20.52
2018-06-11T20:32:27.176Z,20.53
2018-06-11T20:34:56.104Z,20.51
2018-06-11T20:37:25.085Z,20.45
2018-06-11T20:39:54.197Z,20.43
2018-06-11T20:42:23.182Z,20.41
2018-06-11T20:44:52.118Z,20.42
2018-06-11T20:47:21.097Z,20.39
2018-06-11T20:49:50.065Z,20.38
2018-06-11T20:52:19.040Z,20.40
2018-06-11T20:54:48.010Z,20.34
2018-06-11T20:57:16.974Z,20.35
2018-06-11T20:59:45.921Z,20.34
2018-06-11T21:02:14.879Z,20.27
2018-06-11T21:04:44.044Z,20.29
2018-06-11T21:07:13.035Z,20.30
2018-06-11T21:09:42.032Z,20.30
2018-06-11T21:12:11.304Z,20.28
2018-06-11T21:14:40.632Z,20.32
2018-06-11T21:17:09.681Z,20.29
2018-06-11T21:19:38.633Z,20.33
2018-06-11T21:22:07.642Z,20.40
2018-06-11T21:24:36.625Z,20.36
2018-06-11T21:27:05.687Z,20.29
2018-06-11T21:29:34.657Z,20.31
2018-06-11T21:32:03.774Z,20.27
2018-06-11T21:34:32.806Z,20.33
2018-06-11T21:37:01.854Z,20.32
2018-06-11T21:39:31.225Z,20.32
2018-06-11T21:42:00.260Z,20.31
2018-06-11T21:44:29.216Z,20.29
2018-06-11T21:46:58.292Z,20.30
2018-06-11T21:49:27.242Z,20.35
2018-06-11T21:51:56.217Z,20.34
2018-06-11T21:54:25.156Z,20.35
2018-06-11T21:56:54.129Z,20.40
2018-06-11T21:59:23.108Z,20.43
2018-06-11T22:01:52.091Z,20.44
2018-06-11T22:04:21.073Z,20.51
2018-06-11T22:06:50.068Z,20.56
2018-06-11T22:09:19.036Z,20.56
2018-06-11T22:11:48.031Z,20.57
2018-06-11T22:14:17.018Z,20.56
2018-06-11T22:16:46.139Z,20.55
2018-06-11T22:19:15.494Z,20.42
2018-06-11T22:21:44.517Z,20.41
2018-06-11T22:24:13.518Z,20.33
2018-06-11T22:26:42.626Z,20.24
2018-06-11T22:29:11.727Z,20.25
2018-06-11T22:31:40.676Z,20.19
2018-06-11T22:34:09.646Z,20.17
2018-06-11T22:36:38.740Z,20.17
2018-06-11T22:39:08.487Z,20.12
2018-06-11T22:41:37.568Z,20.05
2018-06-11T22:44:06.570Z,20.02
2018-06-11T22:46:35.526Z,19.99
2018-06-11T22:49:04.501Z,19.90
2018-06-11T22:51:33.528Z,19.91
2018-06-11T22:54:02.696Z,19.83
2018-06-11T22:56:31.697Z,19.75
2018-06-11T22:59:00.661Z,19.72
2018-06-11T23:01:29.627Z,19.70
2018-06-11T23:03:58.573Z,19.63
2018-06-11T23:06:27.527Z,19.55
2018-06-11T23:08:56.511Z,19.55
2018-06-11T23:11:25.466Z,19.48
2018-06-11T23:13:54.492Z,19.40
2018-06-11T23:16:23.449Z,19.40
2018-06-11T23:18:52.466Z,19.31
2018-06-11T23:21:21.409Z,19.27
2018-06-11T23:23:50.375Z,19.29
2018-06-11T23:26:19.366Z,19.27
2018-06-11T23:28:48.334Z,19.23
2018-06-11T23:31:17.298Z,19.22
2018-06-11T23:33:46.269Z,19.23
2018-06-11T23:36:15.266Z,19.17
2018-06-11T23:38:44.294Z,19.15
2018-06-11T23:41:13.421Z,19.21
2018-06-11T23:43:42.507Z,19.23
2018-06-11T23:46:11.450Z,19.26
2018-06-11T23:48:40.402Z,19.28
2018-06-11T23:51:09.405Z,19.30
2018-06-11T23:53:38.416Z,19.29
2018-06-11T23:56:07.406Z,19.26
2018-06-11T23:58:36.346Z,19.17
